sensor_id;sensor_type;location;lat;lon;timestamp;P1;durP1;ratioP1;P2;durP2;ratioP2
57551;SDS011;43379;48.160;14.036;2023-07-20T00:00:05;6.80;;;6.20;;
57551;SDS011;43379;48.160;14.036;2023-07-20T00:02:31;6.33;;;5.40;;
57551;SDS011;43379;48.160;14.036;2023-07-20T00:04:57;6.27;;;5.67;;
57551;SDS011;43379;48.160;14.036;2023-07-20T00:07:23;5.73;;;5.23;;
57551;SDS011;43379;48.160;14.036;2023-07-20T00:09:49;6.93;;;6.27;;
57551;SDS011;43379;48.160;14.036;2023-07-20T00:12:15;6.03;;;5.43;;
57551;SDS011;43379;48.160;14.036;2023-07-20T00:14:41;6.13;;;5.53;;
57551;SDS011;43379;48.160;14.036;2023-07-20T00:17:06;5.43;;;4.93;;
57551;SDS011;43379;48.160;14.036;2023-07-20T00:19:32;6.70;;;5.23;;
57551;SDS011;43379;48.160;14.036;2023-07-20T00:21:57;5.30;;;4.77;;
57551;SDS011;43379;48.160;14.036;2023-07-20T00:24:24;5.63;;;5.13;;
57551;SDS011;43379;48.160;14.036;2023-07-20T00:26:49;5.83;;;5.23;;
57551;SDS011;43379;48.160;14.036;2023-07-20T00:29:15;5.27;;;4.77;;
57551;SDS011;43379;48.160;14.036;2023-07-20T00:31:41;5.53;;;5.03;;
57551;SDS011;43379;48.160;14.036;2023-07-20T00:34:08;5.70;;;5.20;;
57551;SDS011;43379;48.160;14.036;2023-07-20T00:36:34;4.80;;;4.40;;
57551;SDS011;43379;48.160;14.036;2023-07-20T00:38:59;5.80;;;4.50;;
57551;SDS011;43379;48.160;14.036;2023-07-20T00:41:25;5.77;;;5.27;;
57551;SDS011;43379;48.160;14.036;2023-07-20T00:43:54;6.97;;;5.30;;
57551;SDS011;43379;48.160;14.036;2023-07-20T00:46:20;7.53;;;5.00;;
57551;SDS011;43379;48.160;14.036;2023-07-20T00:48:48;9.97;;;5.50;;
57551;SDS011;43379;48.160;14.036;2023-07-20T00:51:14;5.70;;;5.20;;
57551;SDS011;43379;48.160;14.036;2023-07-20T00:53:40;5.73;;;5.23;;
57551;SDS011;43379;48.160;14.036;2023-07-20T00:56:06;4.93;;;4.53;;
57551;SDS011;43379;48.160;14.036;2023-07-20T00:58:33;5.20;;;4.80;;
57551;SDS011;43379;48.160;14.036;2023-07-20T01:00:59;4.80;;;4.40;;
57551;SDS011;43379;48.160;14.036;2023-07-20T01:03:25;4.97;;;4.57;;
57551;SDS011;43379;48.160;14.036;2023-07-20T01:05:54;5.93;;;5.07;;
57551;SDS011;43379;48.160;14.036;2023-07-20T01:08:31;4.60;;;4.20;;
57551;SDS011;43379;48.160;14.036;2023-07-20T01:11:17;6.27;;;4.90;;
57551;SDS011;43379;48.160;14.036;2023-07-20T01:14:05;8.00;;;4.70;;
57551;SDS011;43379;48.160;14.036;2023-07-20T01:16:32;5.27;;;4.77;;
57551;SDS011;43379;48.160;14.036;2023-07-20T01:18:59;4.80;;;4.40;;
57551;SDS011;43379;48.160;14.036;2023-07-20T01:21:26;6.13;;;5.20;;
57551;SDS011;43379;48.160;14.036;2023-07-20T01:32:57;4.43;;;4.03;;
57551;SDS011;43379;48.160;14.036;2023-07-20T01:35:25;5.60;;;5.00;;
57551;SDS011;43379;48.160;14.036;2023-07-20T01:37:54;5.30;;;4.10;;
57551;SDS011;43379;48.160;14.036;2023-07-20T01:40:20;7.77;;;4.90;;
57551;SDS011;43379;48.160;14.036;2023-07-20T01:42:48;5.00;;;4.60;;
57551;SDS011;43379;48.160;14.036;2023-07-20T01:45:14;10.00;;;4.80;;
57551;SDS011;43379;48.160;14.036;2023-07-20T01:47:40;5.63;;;5.07;;
57551;SDS011;43379;48.160;14.036;2023-07-20T01:50:06;7.07;;;4.80;;
57551;SDS011;43379;48.160;14.036;2023-07-20T01:52:32;6.13;;;5.40;;
57551;SDS011;43379;48.160;14.036;2023-07-20T01:54:58;5.60;;;5.10;;
57551;SDS011;43379;48.160;14.036;2023-07-20T01:57:23;5.20;;;4.70;;
57551;SDS011;43379;48.160;14.036;2023-07-20T01:59:49;5.27;;;4.77;;
57551;SDS011;43379;48.160;14.036;2023-07-20T02:02:14;5.20;;;4.77;;
57551;SDS011;43379;48.160;14.036;2023-07-20T02:04:40;5.87;;;4.93;;
57551;SDS011;43379;48.160;14.036;2023-07-20T02:07:06;5.73;;;5.10;;
57551;SDS011;43379;48.160;14.036;2023-07-20T02:09:31;5.70;;;4.67;;
57551;SDS011;43379;48.160;14.036;2023-07-20T02:11:57;5.20;;;4.70;;
57551;SDS011;43379;48.160;14.036;2023-07-20T02:14:22;5.13;;;4.63;;
57551;SDS011;43379;48.160;14.036;2023-07-20T02:16:48;5.90;;;5.33;;
57551;SDS011;43379;48.160;14.036;2023-07-20T02:19:24;7.17;;;6.30;;
57551;SDS011;43379;48.160;14.036;2023-07-20T02:21:50;7.63;;;5.23;;
57551;SDS011;43379;48.160;14.036;2023-07-20T02:24:16;5.60;;;5.13;;
57551;SDS011;43379;48.160;14.036;2023-07-20T02:26:41;4.93;;;4.43;;
57551;SDS011;43379;48.160;14.036;2023-07-20T02:29:07;6.10;;;5.17;;
57551;SDS011;43379;48.160;14.036;2023-07-20T02:31:33;6.53;;;5.63;;
57551;SDS011;43379;48.160;14.036;2023-07-20T02:33:59;5.83;;;5.20;;
57551;SDS011;43379;48.160;14.036;2023-07-20T02:36:24;6.53;;;5.83;;
57551;SDS011;43379;48.160;14.036;2023-07-20T02:38:50;5.63;;;5.13;;
57551;SDS011;43379;48.160;14.036;2023-07-20T02:41:16;5.10;;;4.60;;
57551;SDS011;43379;48.160;14.036;2023-07-20T02:43:41;5.37;;;4.83;;
57551;SDS011;43379;48.160;14.036;2023-07-20T02:46:07;5.90;;;5.30;;
57551;SDS011;43379;48.160;14.036;2023-07-20T02:48:33;5.80;;;5.30;;
57551;SDS011;43379;48.160;14.036;2023-07-20T02:50:58;8.43;;;6.60;;
57551;SDS011;43379;48.160;14.036;2023-07-20T02:53:24;6.20;;;5.13;;
57551;SDS011;43379;48.160;14.036;2023-07-20T02:55:49;6.30;;;5.10;;
57551;SDS011;43379;48.160;14.036;2023-07-20T02:58:15;6.10;;;5.27;;
57551;SDS011;43379;48.160;14.036;2023-07-20T03:00:42;5.80;;;5.30;;
57551;SDS011;43379;48.160;14.036;2023-07-20T03:03:08;6.33;;;5.60;;
57551;SDS011;43379;48.160;14.036;2023-07-20T03:05:34;6.43;;;5.50;;
57551;SDS011;43379;48.160;14.036;2023-07-20T03:08:03;6.93;;;5.50;;
57551;SDS011;43379;48.160;14.036;2023-07-20T03:10:31;6.57;;;5.90;;
57551;SDS011;43379;48.160;14.036;2023-07-20T03:12:57;6.00;;;5.50;;
57551;SDS011;43379;48.160;14.036;2023-07-20T03:15:23;6.50;;;5.90;;
57551;SDS011;43379;48.160;14.036;2023-07-20T03:17:48;6.40;;;5.80;;
57551;SDS011;43379;48.160;14.036;2023-07-20T03:20:14;5.57;;;5.07;;
57551;SDS011;43379;48.160;14.036;2023-07-20T03:22:40;5.07;;;4.67;;
57551;SDS011;43379;48.160;14.036;2023-07-20T03:25:06;5.70;;;5.20;;
57551;SDS011;43379;48.160;14.036;2023-07-20T03:27:33;7.60;;;5.63;;
57551;SDS011;43379;48.160;14.036;2023-07-20T03:29:58;6.50;;;5.90;;
57551;SDS011;43379;48.160;14.036;2023-07-20T03:32:24;6.40;;;5.80;;
57551;SDS011;43379;48.160;14.036;2023-07-20T03:34:49;6.00;;;5.50;;
57551;SDS011;43379;48.160;14.036;2023-07-20T03:37:15;5.83;;;5.30;;
57551;SDS011;43379;48.160;14.036;2023-07-20T03:39:41;5.87;;;4.87;;
57551;SDS011;43379;48.160;14.036;2023-07-20T03:42:07;6.10;;;5.60;;
57551;SDS011;43379;48.160;14.036;2023-07-20T03:44:33;6.10;;;5.50;;
57551;SDS011;43379;48.160;14.036;2023-07-20T03:46:58;6.57;;;6.07;;
57551;SDS011;43379;48.160;14.036;2023-07-20T03:49:24;6.10;;;5.50;;
57551;SDS011;43379;48.160;14.036;2023-07-20T03:51:50;6.30;;;5.70;;
57551;SDS011;43379;48.160;14.036;2023-07-20T03:54:15;6.10;;;5.27;;
57551;SDS011;43379;48.160;14.036;2023-07-20T03:56:41;5.57;;;4.97;;
57551;SDS011;43379;48.160;14.036;2023-07-20T03:59:06;6.07;;;5.50;;
57551;SDS011;43379;48.160;14.036;2023-07-20T04:01:32;7.60;;;5.20;;
57551;SDS011;43379;48.160;14.036;2023-07-20T04:04:04;8.20;;;4.77;;
57551;SDS011;43379;48.160;14.036;2023-07-20T04:06:32;7.20;;;5.40;;
57551;SDS011;43379;48.160;14.036;2023-07-20T04:08:57;5.40;;;4.90;;
57551;SDS011;43379;48.160;14.036;2023-07-20T04:11:23;5.50;;;5.00;;
57551;SDS011;43379;48.160;14.036;2023-07-20T04:13:49;6.23;;;5.13;;
57551;SDS011;43379;48.160;14.036;2023-07-20T04:16:14;5.73;;;5.13;;
57551;SDS011;43379;48.160;14.036;2023-07-20T04:18:40;6.27;;;5.33;;
57551;SDS011;43379;48.160;14.036;2023-07-20T04:21:07;6.30;;;5.80;;
57551;SDS011;43379;48.160;14.036;2023-07-20T04:23:33;5.97;;;5.47;;
57551;SDS011;43379;48.160;14.036;2023-07-20T04:26:00;5.00;;;4.43;;
57551;SDS011;43379;48.160;14.036;2023-07-20T04:28:26;7.73;;;5.60;;
57551;SDS011;43379;48.160;14.036;2023-07-20T04:30:52;5.73;;;5.20;;
57551;SDS011;43379;48.160;14.036;2023-07-20T04:33:18;5.50;;;5.10;;
57551;SDS011;43379;48.160;14.036;2023-07-20T04:35:45;7.47;;;5.67;;
57551;SDS011;43379;48.160;14.036;2023-07-20T04:38:14;7.00;;;5.60;;
57551;SDS011;43379;48.160;14.036;2023-07-20T04:40:46;6.03;;;5.10;;
57551;SDS011;43379;48.160;14.036;2023-07-20T04:43:13;7.87;;;6.13;;
57551;SDS011;43379;48.160;14.036;2023-07-20T04:45:39;6.70;;;5.67;;
57551;SDS011;43379;48.160;14.036;2023-07-20T04:48:07;6.63;;;5.47;;
57551;SDS011;43379;48.160;14.036;2023-07-20T04:50:40;7.23;;;5.03;;
57551;SDS011;43379;48.160;14.036;2023-07-20T04:53:06;7.97;;;5.20;;
57551;SDS011;43379;48.160;14.036;2023-07-20T04:55:32;6.50;;;5.40;;
57551;SDS011;43379;48.160;14.036;2023-07-20T04:57:59;6.77;;;5.60;;
57551;SDS011;43379;48.160;14.036;2023-07-20T05:00:25;6.40;;;5.63;;
57551;SDS011;43379;48.160;14.036;2023-07-20T05:02:51;6.17;;;5.57;;
57551;SDS011;43379;48.160;14.036;2023-07-20T05:05:17;5.77;;;5.27;;
57551;SDS011;43379;48.160;14.036;2023-07-20T05:07:43;6.80;;;5.50;;
57551;SDS011;43379;48.160;14.036;2023-07-20T05:10:08;7.03;;;5.63;;
57551;SDS011;43379;48.160;14.036;2023-07-20T05:12:34;6.80;;;5.60;;
57551;SDS011;43379;48.160;14.036;2023-07-20T05:15:00;7.17;;;6.13;;
57551;SDS011;43379;48.160;14.036;2023-07-20T05:17:26;5.77;;;5.27;;
57551;SDS011;43379;48.160;14.036;2023-07-20T05:19:51;5.70;;;5.10;;
57551;SDS011;43379;48.160;14.036;2023-07-20T05:22:17;5.20;;;4.80;;
57551;SDS011;43379;48.160;14.036;2023-07-20T05:24:43;6.63;;;5.27;;
57551;SDS011;43379;48.160;14.036;2023-07-20T05:27:08;6.30;;;4.53;;
57551;SDS011;43379;48.160;14.036;2023-07-20T05:29:34;7.63;;;5.20;;
57551;SDS011;43379;48.160;14.036;2023-07-20T05:31:59;6.17;;;4.73;;
57551;SDS011;43379;48.160;14.036;2023-07-20T05:34:25;5.17;;;4.70;;
57551;SDS011;43379;48.160;14.036;2023-07-20T05:39:35;7.30;;;4.90;;
57551;SDS011;43379;48.160;14.036;2023-07-20T05:42:01;11.27;;;4.60;;
57551;SDS011;43379;48.160;14.036;2023-07-20T05:44:26;5.23;;;4.60;;
57551;SDS011;43379;48.160;14.036;2023-07-20T05:46:52;5.23;;;4.73;;
57551;SDS011;43379;48.160;14.036;2023-07-20T05:49:18;5.60;;;4.53;;
57551;SDS011;43379;48.160;14.036;2023-07-20T05:51:43;5.23;;;4.03;;
57551;SDS011;43379;48.160;14.036;2023-07-20T05:54:09;4.50;;;4.10;;
57551;SDS011;43379;48.160;14.036;2023-07-20T05:56:35;6.10;;;5.30;;
57551;SDS011;43379;48.160;14.036;2023-07-20T05:59:00;4.60;;;4.20;;
57551;SDS011;43379;48.160;14.036;2023-07-20T06:01:26;5.60;;;4.20;;
57551;SDS011;43379;48.160;14.036;2023-07-20T06:03:53;5.10;;;4.60;;
57551;SDS011;43379;48.160;14.036;2023-07-20T06:06:19;5.13;;;4.60;;
57551;SDS011;43379;48.160;14.036;2023-07-20T06:08:44;5.23;;;4.73;;
57551;SDS011;43379;48.160;14.036;2023-07-20T06:11:11;5.50;;;4.90;;
57551;SDS011;43379;48.160;14.036;2023-07-20T06:13:36;7.70;;;4.00;;
57551;SDS011;43379;48.160;14.036;2023-07-20T06:16:02;5.03;;;4.60;;
57551;SDS011;43379;48.160;14.036;2023-07-20T06:18:28;4.53;;;4.00;;
57551;SDS011;43379;48.160;14.036;2023-07-20T06:20:56;5.47;;;4.20;;
57551;SDS011;43379;48.160;14.036;2023-07-20T06:23:21;4.60;;;4.20;;
57551;SDS011;43379;48.160;14.036;2023-07-20T06:25:47;6.87;;;5.90;;
57551;SDS011;43379;48.160;14.036;2023-07-20T06:28:13;6.47;;;4.30;;
57551;SDS011;43379;48.160;14.036;2023-07-20T06:30:39;6.30;;;4.40;;
57551;SDS011;43379;48.160;14.036;2023-07-20T06:33:05;6.90;;;5.10;;
57551;SDS011;43379;48.160;14.036;2023-07-20T06:35:31;12.17;;;4.80;;
57551;SDS011;43379;48.160;14.036;2023-07-20T06:37:57;5.20;;;4.70;;
57551;SDS011;43379;48.160;14.036;2023-07-20T06:40:25;5.90;;;4.60;;
57551;SDS011;43379;48.160;14.036;2023-07-20T06:42:51;6.27;;;3.87;;
57551;SDS011;43379;48.160;14.036;2023-07-20T06:45:17;4.20;;;3.80;;
57551;SDS011;43379;48.160;14.036;2023-07-20T06:47:43;4.90;;;4.50;;
57551;SDS011;43379;48.160;14.036;2023-07-20T06:50:09;5.13;;;4.60;;
57551;SDS011;43379;48.160;14.036;2023-07-20T06:52:35;4.50;;;4.10;;
57551;SDS011;43379;48.160;14.036;2023-07-20T06:55:02;5.67;;;3.90;;
57551;SDS011;43379;48.160;14.036;2023-07-20T06:57:28;4.37;;;4.07;;
57551;SDS011;43379;48.160;14.036;2023-07-20T06:59:53;4.80;;;4.00;;
57551;SDS011;43379;48.160;14.036;2023-07-20T07:02:19;5.93;;;3.97;;
57551;SDS011;43379;48.160;14.036;2023-07-20T07:04:45;4.70;;;4.30;;
57551;SDS011;43379;48.160;14.036;2023-07-20T07:07:13;4.80;;;4.30;;
57551;SDS011;43379;48.160;14.036;2023-07-20T07:09:39;4.80;;;4.40;;
57551;SDS011;43379;48.160;14.036;2023-07-20T07:12:05;5.90;;;4.67;;
57551;SDS011;43379;48.160;14.036;2023-07-20T07:14:31;5.10;;;4.13;;
57551;SDS011;43379;48.160;14.036;2023-07-20T07:16:57;4.70;;;4.30;;
57551;SDS011;43379;48.160;14.036;2023-07-20T07:19:22;5.23;;;4.40;;
57551;SDS011;43379;48.160;14.036;2023-07-20T07:21:48;5.50;;;5.00;;
57551;SDS011;43379;48.160;14.036;2023-07-20T07:24:14;5.00;;;3.83;;
57551;SDS011;43379;48.160;14.036;2023-07-20T07:26:39;7.63;;;4.03;;
57551;SDS011;43379;48.160;14.036;2023-07-20T07:29:05;3.93;;;3.53;;
57551;SDS011;43379;48.160;14.036;2023-07-20T07:31:34;4.17;;;3.30;;
57551;SDS011;43379;48.160;14.036;2023-07-20T07:34:03;5.50;;;3.10;;
57551;SDS011;43379;48.160;14.036;2023-07-20T07:36:30;5.40;;;3.40;;
57551;SDS011;43379;48.160;14.036;2023-07-20T07:38:56;4.50;;;3.50;;
57551;SDS011;43379;48.160;14.036;2023-07-20T07:41:21;8.13;;;3.50;;
57551;SDS011;43379;48.160;14.036;2023-07-20T07:43:47;3.97;;;2.93;;
57551;SDS011;43379;48.160;14.036;2023-07-20T07:46:13;4.40;;;2.90;;
57551;SDS011;43379;48.160;14.036;2023-07-20T07:48:39;3.77;;;3.20;;
57551;SDS011;43379;48.160;14.036;2023-07-20T07:51:05;3.90;;;2.90;;
57551;SDS011;43379;48.160;14.036;2023-07-20T07:53:31;7.23;;;3.50;;
57551;SDS011;43379;48.160;14.036;2023-07-20T07:55:57;6.60;;;3.70;;
57551;SDS011;43379;48.160;14.036;2023-07-20T07:58:23;5.63;;;3.23;;
57551;SDS011;43379;48.160;14.036;2023-07-20T08:00:49;4.00;;;3.70;;
57551;SDS011;43379;48.160;14.036;2023-07-20T08:03:14;4.43;;;4.03;;
57551;SDS011;43379;48.160;14.036;2023-07-20T08:05:40;4.20;;;3.53;;
57551;SDS011;43379;48.160;14.036;2023-07-20T08:08:06;4.03;;;3.60;;
57551;SDS011;43379;48.160;14.036;2023-07-20T08:10:33;3.93;;;3.63;;
57551;SDS011;43379;48.160;14.036;2023-07-20T08:12:59;3.40;;;3.10;;
57551;SDS011;43379;48.160;14.036;2023-07-20T08:15:25;4.37;;;3.97;;
57551;SDS011;43379;48.160;14.036;2023-07-20T08:17:50;4.70;;;3.73;;
57551;SDS011;43379;48.160;14.036;2023-07-20T08:20:17;7.63;;;3.87;;
57551;SDS011;43379;48.160;14.036;2023-07-20T08:22:43;4.30;;;3.57;;
57551;SDS011;43379;48.160;14.036;2023-07-20T08:25:08;3.33;;;3.03;;
57551;SDS011;43379;48.160;14.036;2023-07-20T08:27:35;3.40;;;3.10;;
57551;SDS011;43379;48.160;14.036;2023-07-20T08:30:01;3.47;;;3.10;;
57551;SDS011;43379;48.160;14.036;2023-07-20T08:32:28;3.50;;;2.87;;
57551;SDS011;43379;48.160;14.036;2023-07-20T08:34:53;4.17;;;2.87;;
57551;SDS011;43379;48.160;14.036;2023-07-20T08:37:19;4.90;;;2.90;;
57551;SDS011;43379;48.160;14.036;2023-07-20T08:39:44;4.97;;;3.00;;
57551;SDS011;43379;48.160;14.036;2023-07-20T08:42:10;4.00;;;3.17;;
57551;SDS011;43379;48.160;14.036;2023-07-20T08:44:39;3.77;;;3.30;;
57551;SDS011;43379;48.160;14.036;2023-07-20T08:47:07;3.20;;;2.50;;
57551;SDS011;43379;48.160;14.036;2023-07-20T08:49:36;3.20;;;2.73;;
57551;SDS011;43379;48.160;14.036;2023-07-20T08:52:04;4.27;;;3.47;;
57551;SDS011;43379;48.160;14.036;2023-07-20T08:54:31;3.57;;;2.80;;
57551;SDS011;43379;48.160;14.036;2023-07-20T08:57:03;3.20;;;2.90;;
57551;SDS011;43379;48.160;14.036;2023-07-20T08:59:29;4.23;;;2.63;;
57551;SDS011;43379;48.160;14.036;2023-07-20T09:01:57;3.83;;;2.50;;
57551;SDS011;43379;48.160;14.036;2023-07-20T09:04:23;3.23;;;2.93;;
57551;SDS011;43379;48.160;14.036;2023-07-20T09:06:49;3.03;;;2.70;;
57551;SDS011;43379;48.160;14.036;2023-07-20T09:09:15;5.60;;;3.27;;
57551;SDS011;43379;48.160;14.036;2023-07-20T09:11:41;3.00;;;2.70;;
57551;SDS011;43379;48.160;14.036;2023-07-20T09:14:07;3.27;;;2.50;;
57551;SDS011;43379;48.160;14.036;2023-07-20T09:19:37;4.83;;;2.27;;
57551;SDS011;43379;48.160;14.036;2023-07-20T09:22:03;4.37;;;2.77;;
57551;SDS011;43379;48.160;14.036;2023-07-20T09:24:30;4.80;;;2.60;;
57551;SDS011;43379;48.160;14.036;2023-07-20T09:26:57;4.73;;;2.57;;
57551;SDS011;43379;48.160;14.036;2023-07-20T09:29:28;5.20;;;2.80;;
57551;SDS011;43379;48.160;14.036;2023-07-20T09:31:59;5.63;;;2.77;;
57551;SDS011;43379;48.160;14.036;2023-07-20T09:34:29;5.40;;;2.93;;
57551;SDS011;43379;48.160;14.036;2023-07-20T09:36:56;4.10;;;1.93;;
57551;SDS011;43379;48.160;14.036;2023-07-20T09:39:25;2.97;;;2.67;;
57551;SDS011;43379;48.160;14.036;2023-07-20T09:41:51;3.27;;;2.70;;
57551;SDS011;43379;48.160;14.036;2023-07-20T09:44:17;6.23;;;2.87;;
57551;SDS011;43379;48.160;14.036;2023-07-20T09:46:47;2.63;;;1.80;;
57551;SDS011;43379;48.160;14.036;2023-07-20T09:49:13;3.30;;;2.53;;
57551;SDS011;43379;48.160;14.036;2023-07-20T09:51:40;3.80;;;2.97;;
57551;SDS011;43379;48.160;14.036;2023-07-20T09:54:07;2.60;;;2.40;;
57551;SDS011;43379;48.160;14.036;2023-07-20T09:56:33;4.80;;;2.40;;
57551;SDS011;43379;48.160;14.036;2023-07-20T09:59:00;7.03;;;2.53;;
57551;SDS011;43379;48.160;14.036;2023-07-20T10:01:26;3.80;;;2.40;;
57551;SDS011;43379;48.160;14.036;2023-07-20T10:03:54;2.27;;;2.03;;
57551;SDS011;43379;48.160;14.036;2023-07-20T10:06:23;2.90;;;2.60;;
57551;SDS011;43379;48.160;14.036;2023-07-20T10:08:53;5.00;;;2.60;;
57551;SDS011;43379;48.160;14.036;2023-07-20T10:11:24;3.77;;;2.70;;
57551;SDS011;43379;48.160;14.036;2023-07-20T10:13:59;2.57;;;2.27;;
57551;SDS011;43379;48.160;14.036;2023-07-20T10:16:32;3.60;;;2.30;;
57551;SDS011;43379;48.160;14.036;2023-07-20T10:21:37;2.70;;;2.43;;
57551;SDS011;43379;48.160;14.036;2023-07-20T10:24:07;3.47;;;2.70;;
57551;SDS011;43379;48.160;14.036;2023-07-20T10:26:34;4.60;;;2.23;;
57551;SDS011;43379;48.160;14.036;2023-07-20T10:29:01;8.07;;;1.73;;
57551;SDS011;43379;48.160;14.036;2023-07-20T10:31:28;3.80;;;2.30;;
57551;SDS011;43379;48.160;14.036;2023-07-20T10:33:55;2.77;;;1.90;;
57551;SDS011;43379;48.160;14.036;2023-07-20T10:36:25;2.97;;;2.00;;
57551;SDS011;43379;48.160;14.036;2023-07-20T10:38:55;4.07;;;2.10;;
57551;SDS011;43379;48.160;14.036;2023-07-20T10:41:29;3.77;;;2.97;;
57551;SDS011;43379;48.160;14.036;2023-07-20T10:44:04;3.23;;;2.13;;
57551;SDS011;43379;48.160;14.036;2023-07-20T10:49:03;5.17;;;1.90;;
57551;SDS011;43379;48.160;14.036;2023-07-20T10:51:38;2.60;;;2.00;;
57551;SDS011;43379;48.160;14.036;2023-07-20T10:54:07;3.47;;;2.57;;
57551;SDS011;43379;48.160;14.036;2023-07-20T10:56:34;2.60;;;2.30;;
57551;SDS011;43379;48.160;14.036;2023-07-20T10:59:00;3.00;;;2.30;;
57551;SDS011;43379;48.160;14.036;2023-07-20T11:01:29;2.93;;;2.10;;
57551;SDS011;43379;48.160;14.036;2023-07-20T11:03:59;2.40;;;2.20;;
57551;SDS011;43379;48.160;14.036;2023-07-20T11:09:15;3.40;;;2.80;;
57551;SDS011;43379;48.160;14.036;2023-07-20T11:11:44;4.43;;;2.63;;
57551;SDS011;43379;48.160;14.036;2023-07-20T11:14:22;3.13;;;2.20;;
57551;SDS011;43379;48.160;14.036;2023-07-20T11:16:49;3.83;;;2.60;;
57551;SDS011;43379;48.160;14.036;2023-07-20T11:19:20;2.43;;;2.13;;
57551;SDS011;43379;48.160;14.036;2023-07-20T11:21:50;3.67;;;2.00;;
57551;SDS011;43379;48.160;14.036;2023-07-20T11:24:20;3.80;;;2.00;;
57551;SDS011;43379;48.160;14.036;2023-07-20T11:26:47;2.93;;;2.00;;
57551;SDS011;43379;48.160;14.036;2023-07-20T11:29:15;5.03;;;2.53;;
57551;SDS011;43379;48.160;14.036;2023-07-20T11:31:43;6.60;;;2.20;;
57551;SDS011;43379;48.160;14.036;2023-07-20T11:34:14;2.50;;;2.00;;
57551;SDS011;43379;48.160;14.036;2023-07-20T11:36:44;3.03;;;2.60;;
57551;SDS011;43379;48.160;14.036;2023-07-20T11:39:11;3.37;;;2.20;;
57551;SDS011;43379;48.160;14.036;2023-07-20T11:41:38;3.53;;;2.40;;
57551;SDS011;43379;48.160;14.036;2023-07-20T11:44:08;11.23;;;2.77;;
57551;SDS011;43379;48.160;14.036;2023-07-20T11:46:38;3.20;;;2.30;;
57551;SDS011;43379;48.160;14.036;2023-07-20T11:49:04;3.07;;;2.20;;
57551;SDS011;43379;48.160;14.036;2023-07-20T11:51:31;3.30;;;2.70;;
57551;SDS011;43379;48.160;14.036;2023-07-20T11:53:57;2.73;;;2.10;;
57551;SDS011;43379;48.160;14.036;2023-07-20T11:56:26;3.30;;;2.43;;
57551;SDS011;43379;48.160;14.036;2023-07-20T11:58:56;8.20;;;2.30;;
57551;SDS011;43379;48.160;14.036;2023-07-20T12:01:25;2.80;;;2.30;;
57551;SDS011;43379;48.160;14.036;2023-07-20T12:03:54;4.03;;;2.17;;
57551;SDS011;43379;48.160;14.036;2023-07-20T12:06:25;5.00;;;2.30;;
57551;SDS011;43379;48.160;14.036;2023-07-20T12:08:54;2.73;;;1.97;;
57551;SDS011;43379;48.160;14.036;2023-07-20T12:11:39;3.60;;;2.07;;
57551;SDS011;43379;48.160;14.036;2023-07-20T12:14:08;7.77;;;2.50;;
57551;SDS011;43379;48.160;14.036;2023-07-20T12:16:35;13.23;;;2.47;;
57551;SDS011;43379;48.160;14.036;2023-07-20T12:19:02;3.80;;;2.33;;
57551;SDS011;43379;48.160;14.036;2023-07-20T12:21:29;4.30;;;2.57;;
57551;SDS011;43379;48.160;14.036;2023-07-20T12:23:56;3.33;;;2.40;;
57551;SDS011;43379;48.160;14.036;2023-07-20T12:26:23;2.43;;;2.23;;
57551;SDS011;43379;48.160;14.036;2023-07-20T12:28:50;4.13;;;2.57;;
57551;SDS011;43379;48.160;14.036;2023-07-20T12:31:17;2.50;;;2.20;;
57551;SDS011;43379;48.160;14.036;2023-07-20T12:33:43;3.03;;;2.23;;
57551;SDS011;43379;48.160;14.036;2023-07-20T12:36:09;4.70;;;2.33;;
57551;SDS011;43379;48.160;14.036;2023-07-20T12:38:35;2.30;;;2.10;;
57551;SDS011;43379;48.160;14.036;2023-07-20T12:41:01;4.13;;;2.70;;
57551;SDS011;43379;48.160;14.036;2023-07-20T12:43:27;2.50;;;2.30;;
57551;SDS011;43379;48.160;14.036;2023-07-20T12:45:54;3.00;;;2.07;;
57551;SDS011;43379;48.160;14.036;2023-07-20T12:48:20;3.43;;;1.97;;
57551;SDS011;43379;48.160;14.036;2023-07-20T12:50:46;1.97;;;1.80;;
57551;SDS011;43379;48.160;14.036;2023-07-20T12:53:12;3.40;;;2.73;;
57551;SDS011;43379;48.160;14.036;2023-07-20T12:55:39;2.13;;;1.93;;
57551;SDS011;43379;48.160;14.036;2023-07-20T12:58:06;3.03;;;2.17;;
57551;SDS011;43379;48.160;14.036;2023-07-20T13:00:33;2.90;;;2.37;;
57551;SDS011;43379;48.160;14.036;2023-07-20T13:02:59;2.80;;;2.17;;
57551;SDS011;43379;48.160;14.036;2023-07-20T13:05:24;6.37;;;2.50;;
57551;SDS011;43379;48.160;14.036;2023-07-20T13:07:50;9.07;;;2.57;;
57551;SDS011;43379;48.160;14.036;2023-07-20T13:10:16;2.73;;;2.40;;
57551;SDS011;43379;48.160;14.036;2023-07-20T13:12:43;3.10;;;2.23;;
57551;SDS011;43379;48.160;14.036;2023-07-20T13:15:09;3.40;;;2.43;;
57551;SDS011;43379;48.160;14.036;2023-07-20T13:17:36;5.30;;;2.43;;
57551;SDS011;43379;48.160;14.036;2023-07-20T13:20:04;2.60;;;1.90;;
57551;SDS011;43379;48.160;14.036;2023-07-20T13:22:31;4.80;;;2.37;;
57551;SDS011;43379;48.160;14.036;2023-07-20T13:24:57;3.43;;;2.47;;
57551;SDS011;43379;48.160;14.036;2023-07-20T13:27:23;4.80;;;2.10;;
57551;SDS011;43379;48.160;14.036;2023-07-20T13:29:50;4.03;;;2.00;;
57551;SDS011;43379;48.160;14.036;2023-07-20T13:32:16;12.23;;;2.80;;
57551;SDS011;43379;48.160;14.036;2023-07-20T13:34:43;3.40;;;2.00;;
57551;SDS011;43379;48.160;14.036;2023-07-20T13:37:13;4.20;;;2.20;;
57551;SDS011;43379;48.160;14.036;2023-07-20T13:39:38;3.10;;;1.90;;
57551;SDS011;43379;48.160;14.036;2023-07-20T13:42:04;2.73;;;1.90;;
57551;SDS011;43379;48.160;14.036;2023-07-20T13:44:31;5.47;;;2.40;;
57551;SDS011;43379;48.160;14.036;2023-07-20T13:46:57;6.23;;;2.63;;
57551;SDS011;43379;48.160;14.036;2023-07-20T13:49:23;5.30;;;2.40;;
57551;SDS011;43379;48.160;14.036;2023-07-20T13:51:49;3.43;;;2.27;;
57551;SDS011;43379;48.160;14.036;2023-07-20T13:54:15;4.00;;;2.00;;
57551;SDS011;43379;48.160;14.036;2023-07-20T13:56:40;3.73;;;2.40;;
57551;SDS011;43379;48.160;14.036;2023-07-20T13:59:06;4.00;;;2.20;;
57551;SDS011;43379;48.160;14.036;2023-07-20T14:01:32;4.40;;;2.40;;
57551;SDS011;43379;48.160;14.036;2023-07-20T14:03:59;3.00;;;2.20;;
57551;SDS011;43379;48.160;14.036;2023-07-20T14:06:25;2.30;;;2.10;;
57551;SDS011;43379;48.160;14.036;2023-07-20T14:08:51;2.67;;;2.20;;
57551;SDS011;43379;48.160;14.036;2023-07-20T14:11:18;4.90;;;2.43;;
57551;SDS011;43379;48.160;14.036;2023-07-20T14:13:44;2.30;;;2.03;;
57551;SDS011;43379;48.160;14.036;2023-07-20T14:16:09;3.27;;;2.97;;
57551;SDS011;43379;48.160;14.036;2023-07-20T14:18:35;2.70;;;2.47;;
57551;SDS011;43379;48.160;14.036;2023-07-20T14:21:01;4.50;;;2.37;;
57551;SDS011;43379;48.160;14.036;2023-07-20T14:23:28;2.37;;;1.87;;
57551;SDS011;43379;48.160;14.036;2023-07-20T14:25:54;3.63;;;2.77;;
57551;SDS011;43379;48.160;14.036;2023-07-20T14:28:20;3.67;;;2.50;;
57551;SDS011;43379;48.160;14.036;2023-07-20T14:30:46;3.90;;;2.17;;
57551;SDS011;43379;48.160;14.036;2023-07-20T14:33:11;2.17;;;1.97;;
57551;SDS011;43379;48.160;14.036;2023-07-20T14:35:37;2.47;;;2.00;;
57551;SDS011;43379;48.160;14.036;2023-07-20T14:38:03;2.40;;;2.17;;
57551;SDS011;43379;48.160;14.036;2023-07-20T14:40:28;4.37;;;2.30;;
57551;SDS011;43379;48.160;14.036;2023-07-20T14:42:57;3.30;;;2.07;;
57551;SDS011;43379;48.160;14.036;2023-07-20T14:45:25;3.90;;;2.00;;
57551;SDS011;43379;48.160;14.036;2023-07-20T14:47:52;3.27;;;2.53;;
57551;SDS011;43379;48.160;14.036;2023-07-20T14:50:21;2.80;;;2.50;;
57551;SDS011;43379;48.160;14.036;2023-07-20T14:52:47;2.67;;;1.93;;